createdAt,value
2023-05-18T00:00:19.690Z,62.37
2023-05-18T00:05:10.900Z,62.47
2023-05-18T00:10:00.664Z,64.14
2023-05-18T00:14:50.707Z,62.61
2023-05-18T00:19:46.965Z,62.70
2023-05-18T00:24:37.262Z,62.28
2023-05-18T00:29:27.153Z,62.32
2023-05-18T00:34:18.285Z,62.56
2023-05-18T00:39:13.490Z,62.33
2023-05-18T00:44:04.977Z,62.11
2023-05-18T00:48:58.141Z,62.16
2023-05-18T00:53:48.521Z,62.38
2023-05-18T00:58:41.613Z,62.33
2023-05-18T01:03:31.663Z,62.28
2023-05-18T01:08:21.632Z,62.33
2023-05-18T01:13:19.286Z,62.52
2023-05-18T01:18:17.729Z,62.28
2023-05-18T01:23:52.584Z,62.19
2023-05-18T01:28:48.816Z,62.44
2023-05-18T01:33:38.888Z,62.28
2023-05-18T01:38:31.337Z,62.36
2023-05-18T01:43:23.497Z,62.17
2023-05-18T01:48:21.583Z,62.26
2023-05-18T01:53:20.738Z,62.26
2023-05-18T01:58:13.036Z,62.33
2023-05-18T02:03:05.849Z,63.72
2023-05-18T02:07:58.529Z,61.99
2023-05-18T02:12:52.863Z,62.36
2023-05-18T02:17:43.818Z,61.90
2023-05-18T02:22:36.340Z,62.46
2023-05-18T02:27:29.002Z,62.49
2023-05-18T02:32:20.527Z,62.12
2023-05-18T02:37:10.806Z,62.47
2023-05-18T02:42:01.337Z,62.71
2023-05-18T02:46:55.237Z,62.94
2023-05-18T02:51:45.293Z,62.86
2023-05-18T02:56:36.024Z,62.67
2023-05-18T03:01:38.013Z,62.66
2023-05-18T03:06:30.847Z,63.06
2023-05-18T03:11:21.744Z,63.09
2023-05-18T03:16:12.348Z,62.84
2023-05-18T03:21:03.628Z,63.10
2023-05-18T03:25:57.107Z,63.03
2023-05-18T03:30:50.378Z,62.92
2023-05-18T03:35:41.017Z,62.95
2023-05-18T03:40:32.756Z,62.87
2023-05-18T03:45:27.977Z,63.36
2023-05-18T03:50:18.578Z,63.14
2023-05-18T03:55:09.912Z,63.40
2023-05-18T04:00:00.402Z,63.49
2023-05-18T04:04:54.297Z,63.53
2023-05-18T04:09:47.029Z,63.73
2023-05-18T04:14:36.704Z,65.10
2023-05-18T04:19:27.158Z,63.54
2023-05-18T04:24:21.581Z,63.22
2023-05-18T04:29:13.673Z,63.68
2023-05-18T04:34:03.640Z,63.55
2023-05-18T04:38:58.724Z,65.36
2023-05-18T04:43:52.649Z,65.44
2023-05-18T04:48:43.485Z,65.47
2023-05-18T04:53:34.788Z,65.23
2023-05-18T04:58:24.878Z,64.95
2023-05-18T05:03:17.635Z,64.65
2023-05-18T05:08:14.660Z,64.68
2023-05-18T05:13:04.615Z,64.47
2023-05-18T05:18:00.994Z,64.59
2023-05-18T05:22:53.749Z,64.77
2023-05-18T05:27:48.996Z,64.31
2023-05-18T05:32:51.515Z,64.75
2023-05-18T05:37:42.358Z,64.57
2023-05-18T05:42:37.840Z,64.53
2023-05-18T05:47:28.103Z,64.72
2023-05-18T05:52:18.250Z,64.56
2023-05-18T05:57:11.781Z,64.39
2023-05-18T06:02:04.621Z,64.77
2023-05-18T06:06:56.826Z,64.72
2023-05-18T06:11:47.073Z,65.63
2023-05-18T06:16:38.381Z,65.89
2023-05-18T06:21:31.823Z,65.19
2023-05-18T06:26:23.343Z,65.82
2023-05-18T06:31:28.265Z,65.45
2023-05-18T06:36:48.200Z,65.79
2023-05-18T06:41:40.457Z,65.46
2023-05-18T06:46:30.834Z,65.20
2023-05-18T06:51:26.415Z,64.94
2023-05-18T06:56:22.620Z,64.69
2023-05-18T07:01:12.877Z,64.56
2023-05-18T07:06:03.202Z,64.23
2023-05-18T07:10:53.439Z,64.23
2023-05-18T07:15:46.533Z,64.06
2023-05-18T07:20:36.532Z,63.51
2023-05-18T07:25:26.975Z,63.40
2023-05-18T07:30:19.270Z,62.46
2023-05-18T07:35:13.115Z,62.48
2023-05-18T07:40:03.002Z,61.29
2023-05-18T07:44:53.339Z,61.51
2023-05-18T07:49:43.380Z,61.73
2023-05-18T07:54:36.296Z,62.52
2023-05-18T07:59:26.360Z,59.59
2023-05-18T08:04:16.407Z,62.38
2023-05-18T08:09:06.862Z,61.95
2023-05-18T08:13:59.497Z,61.06
2023-05-18T08:18:50.128Z,61.01
2023-05-18T08:23:40.883Z,59.68
2023-05-18T08:28:32.026Z,59.34
2023-05-18T08:33:24.773Z,59.31
2023-05-18T08:38:15.156Z,58.64
2023-05-18T08:43:08.470Z,58.79
2023-05-18T08:48:00.460Z,59.13
2023-05-18T08:52:58.520Z,56.42
2023-05-18T08:57:55.846Z,58.07
2023-05-18T09:02:46.634Z,57.58
2023-05-18T09:07:37.753Z,57.74
2023-05-18T09:12:31.704Z,56.84
2023-05-18T09:17:26.430Z,51.94
2023-05-18T09:22:17.331Z,54.55
2023-05-18T09:27:08.287Z,55.21
2023-05-18T09:32:05.285Z,54.54
2023-05-18T09:36:57.993Z,54.54
2023-05-18T09:41:48.321Z,54.22
2023-05-18T09:46:39.753Z,54.14
2023-05-18T09:51:32.912Z,54.21
2023-05-18T09:56:23.390Z,53.73
2023-05-18T10:01:14.562Z,53.33
2023-05-18T10:06:07.124Z,46.10
2023-05-18T10:10:59.853Z,45.02
2023-05-18T10:15:54.319Z,43.65
2023-05-18T10:20:45.576Z,43.16
2023-05-18T10:25:37.595Z,44.13
2023-05-18T10:30:34.024Z,44.33
2023-05-18T10:35:28.542Z,43.67
2023-05-18T10:40:20.731Z,42.83
2023-05-18T10:45:13.221Z,42.51
2023-05-18T10:50:08.168Z,41.88
2023-05-18T10:54:58.181Z,42.09
2023-05-18T10:59:50.281Z,41.89
2023-05-18T11:04:42.815Z,42.37
2023-05-18T11:09:36.567Z,43.74
2023-05-18T11:14:30.540Z,42.42
2023-05-18T11:19:20.652Z,42.21
2023-05-18T11:24:18.610Z,41.81
2023-05-18T11:29:21.569Z,41.80
2023-05-18T11:34:41.140Z,42.30
2023-05-18T11:39:30.926Z,42.96
2023-05-18T11:44:25.214Z,43.07
2023-05-18T11:49:19.397Z,42.95
2023-05-18T11:54:11.846Z,42.60
2023-05-18T11:59:14.357Z,43.07
2023-05-18T12:04:07.389Z,42.26
2023-05-18T12:08:58.391Z,43.01
2023-05-18T12:13:49.249Z,42.68
2023-05-18T12:18:39.448Z,40.85
2023-05-18T12:23:41.023Z,41.48
2023-05-18T12:28:32.363Z,41.20
2023-05-18T12:33:24.304Z,40.79
2023-05-18T12:38:13.946Z,40.55
2023-05-18T12:43:06.445Z,41.90
2023-05-18T12:47:57.607Z,42.59
2023-05-18T12:52:47.619Z,42.08
2023-05-18T12:57:41.788Z,42.39
2023-05-18T13:02:37.335Z,42.48
2023-05-18T13:07:29.253Z,42.11
2023-05-18T13:12:19.179Z,42.33
2023-05-18T13:17:12.063Z,42.28
2023-05-18T13:22:04.646Z,42.46
2023-05-18T13:26:54.626Z,42.13
2023-05-18T13:31:44.799Z,42.62
2023-05-18T13:36:36.777Z,42.27
2023-05-18T13:41:29.658Z,42.14
2023-05-18T13:46:22.139Z,42.25
2023-05-18T13:51:12.118Z,42.31
2023-05-18T13:56:02.177Z,42.12
2023-05-18T14:00:54.915Z,41.87
2023-05-18T14:05:50.790Z,42.62
2023-05-18T14:10:48.059Z,42.90
2023-05-18T14:15:37.941Z,42.35
2023-05-18T14:20:30.917Z,42.08
2023-05-18T14:25:26.351Z,42.37
2023-05-18T14:30:19.528Z,42.81
2023-05-18T14:35:10.312Z,40.27
2023-05-18T14:40:11.245Z,38.91
2023-05-18T14:45:01.216Z,50.34
2023-05-18T14:54:57.630Z,54.54
2023-05-18T14:59:52.713Z,61.48
2023-05-18T15:04:44.693Z,62.59
2023-05-18T15:09:34.711Z,61.15
2023-05-18T15:14:27.475Z,60.71
2023-05-18T15:19:27.731Z,60.41
2023-05-18T15:24:20.128Z,58.86
2023-05-18T15:29:09.786Z,60.44
2023-05-18T15:33:59.396Z,61.57
2023-05-18T15:38:54.002Z,61.05
2023-05-18T15:43:45.499Z,60.38
2023-05-18T15:48:35.270Z,61.49
2023-05-18T15:53:24.855Z,60.78
2023-05-18T15:58:17.433Z,60.99
2023-05-18T16:03:07.378Z,58.38
2023-05-18T16:07:57.421Z,58.93
2023-05-18T16:12:48.955Z,59.70
2023-05-18T16:17:41.198Z,57.44
2023-05-18T16:22:31.629Z,55.44
2023-05-18T16:27:23.535Z,56.04
2023-05-18T16:32:13.428Z,55.74
2023-05-18T16:37:05.546Z,58.68
2023-05-18T16:41:55.218Z,54.69
2023-05-18T16:46:45.220Z,54.78
2023-05-18T16:51:36.140Z,52.00
2023-05-18T16:56:30.019Z,50.15
2023-05-18T17:06:15.128Z,49.44
2023-05-18T17:11:05.667Z,51.06
2023-05-18T17:15:58.676Z,50.64
2023-05-18T17:20:48.588Z,50.90
2023-05-18T17:25:38.546Z,50.92
2023-05-18T17:30:28.445Z,50.49
2023-05-18T17:35:23.145Z,50.11
2023-05-18T17:40:13.990Z,46.96
2023-05-18T17:45:03.868Z,45.99
2023-05-18T17:49:53.832Z,45.72
2023-05-18T17:54:46.289Z,45.51
2023-05-18T17:59:37.826Z,45.02
2023-05-18T18:04:27.711Z,46.04
2023-05-18T18:09:17.729Z,45.54
2023-05-18T18:14:11.666Z,46.05
2023-05-18T18:19:03.030Z,45.98
2023-05-18T18:23:52.945Z,45.04
2023-05-18T18:28:44.691Z,45.53
2023-05-18T18:33:37.338Z,46.29
2023-05-18T18:38:27.335Z,45.21
2023-05-18T18:43:17.538Z,45.68
2023-05-18T18:48:09.293Z,45.70
2023-05-18T18:53:01.854Z,47.32
2023-05-18T18:57:53.194Z,46.70
2023-05-18T19:02:44.401Z,46.88
2023-05-18T19:07:38.408Z,46.26
2023-05-18T19:12:33.496Z,46.66
2023-05-18T19:17:26.927Z,47.65
2023-05-18T19:22:17.765Z,47.97
2023-05-18T19:27:07.729Z,48.69
2023-05-18T19:32:02.448Z,48.11
2023-05-18T19:36:54.015Z,49.39
2023-05-18T19:41:44.172Z,48.63
2023-05-18T19:46:34.457Z,50.36
2023-05-18T19:51:28.364Z,52.31
2023-05-18T19:56:18.331Z,52.37
2023-05-18T20:01:10.179Z,51.42
2023-05-18T20:06:03.162Z,50.83
2023-05-18T20:10:57.834Z,51.04
2023-05-18T20:15:49.814Z,51.92
2023-05-18T20:20:40.827Z,54.08
2023-05-18T20:25:35.438Z,55.07
2023-05-18T20:30:29.541Z,54.59
2023-05-18T20:35:21.031Z,55.32
2023-05-18T20:40:14.152Z,56.61
2023-05-18T20:45:04.081Z,56.25
2023-05-18T20:49:58.835Z,57.11
2023-05-18T20:54:49.078Z,58.04
2023-05-18T20:59:39.096Z,59.35
2023-05-18T21:04:30.917Z,58.23
2023-05-18T21:09:23.355Z,58.62
2023-05-18T21:14:13.334Z,58.05
2023-05-18T21:19:03.546Z,58.92
2023-05-18T21:23:53.876Z,58.96
2023-05-18T21:28:46.638Z,58.60
2023-05-18T21:33:37.638Z,58.11
2023-05-18T21:38:27.649Z,58.46
2023-05-18T21:43:17.671Z,58.83
2023-05-18T21:48:12.001Z,59.59
2023-05-18T21:53:04.273Z,60.95
2023-05-18T21:57:54.657Z,60.96
2023-05-18T22:02:44.656Z,61.79
2023-05-18T22:07:41.160Z,62.67
2023-05-18T22:12:31.919Z,63.78
2023-05-18T22:17:22.091Z,63.94
2023-05-18T22:22:19.446Z,63.88
2023-05-18T22:27:21.890Z,64.40
2023-05-18T22:32:16.263Z,64.54
2023-05-18T22:37:06.286Z,65.04
2023-05-18T22:41:56.326Z,63.15
2023-05-18T22:46:49.381Z,62.01
2023-05-18T22:51:41.015Z,62.30
2023-05-18T22:56:31.578Z,62.14
2023-05-18T23:01:21.470Z,62.69
2023-05-18T23:06:14.211Z,62.10
2023-05-18T23:11:05.049Z,61.88
2023-05-18T23:15:56.532Z,61.90
2023-05-18T23:20:50.686Z,61.47
2023-05-18T23:25:43.297Z,62.32
2023-05-18T23:30:33.417Z,63.07
2023-05-18T23:35:24.184Z,63.66
2023-05-18T23:40:16.112Z,63.86
2023-05-18T23:45:10.835Z,64.18
2023-05-18T23:50:01.501Z,64.40
2023-05-18T23:54:55.876Z,65.14
2023-05-18T23:59:47.395Z,65.37
